sensor_id;sensor_type;location;lat;lon;timestamp;temperature;humidity
14924;DHT22;7554;43.600;1.480;2023-05-07T00:02:14;17.50;1.00
14924;DHT22;7554;43.600;1.480;2023-05-07T00:04:41;17.50;1.00
14924;DHT22;7554;43.600;1.480;2023-05-07T00:07:09;17.50;1.00
14924;DHT22;7554;43.600;1.480;2023-05-07T00:09:37;17.60;1.00
14924;DHT22;7554;43.600;1.480;2023-05-07T00:12:04;17.60;1.00
14924;DHT22;7554;43.600;1.480;2023-05-07T00:14:31;17.50;1.00
14924;DHT22;7554;43.600;1.480;2023-05-07T00:17:00;17.50;1.00
14924;DHT22;7554;43.600;1.480;2023-05-07T00:19:27;17.50;1.00
14924;DHT22;7554;43.600;1.480;2023-05-07T00:21:55;17.60;1.00
14924;DHT22;7554;43.600;1.480;2023-05-07T00:24:22;17.50;99.90
14924;DHT22;7554;43.600;1.480;2023-05-07T00:26:50;17.40;99.90
14924;DHT22;7554;43.600;1.480;2023-05-07T00:29:18;17.40;99.90
14924;DHT22;7554;43.600;1.480;2023-05-07T00:31:45;17.60;99.90
14924;DHT22;7554;43.600;1.480;2023-05-07T00:34:14;17.40;99.90
14924;DHT22;7554;43.600;1.480;2023-05-07T00:36:41;17.40;99.90
14924;DHT22;7554;43.600;1.480;2023-05-07T00:39:09;17.40;99.90
14924;DHT22;7554;43.600;1.480;2023-05-07T00:41:36;17.40;99.90
14924;DHT22;7554;43.600;1.480;2023-05-07T00:44:03;17.30;99.90
14924;DHT22;7554;43.600;1.480;2023-05-07T00:46:31;17.40;99.90
14924;DHT22;7554;43.600;1.480;2023-05-07T00:48:59;17.30;99.90
14924;DHT22;7554;43.600;1.480;2023-05-07T00:51:30;17.20;99.90
14924;DHT22;7554;43.600;1.480;2023-05-07T00:53:57;17.20;99.90
14924;DHT22;7554;43.600;1.480;2023-05-07T00:56:25;17.10;99.90
14924;DHT22;7554;43.600;1.480;2023-05-07T00:58:52;17.10;99.90
14924;DHT22;7554;43.600;1.480;2023-05-07T01:01:20;17.20;99.90
14924;DHT22;7554;43.600;1.480;2023-05-07T01:03:47;17.10;99.90
14924;DHT22;7554;43.600;1.480;2023-05-07T01:06:15;17.20;99.90
14924;DHT22;7554;43.600;1.480;2023-05-07T01:08:45;17.10;99.90
14924;DHT22;7554;43.600;1.480;2023-05-07T01:11:12;17.10;99.90
14924;DHT22;7554;43.600;1.480;2023-05-07T01:13:40;17.10;99.90
14924;DHT22;7554;43.600;1.480;2023-05-07T01:16:09;17.10;99.90
14924;DHT22;7554;43.600;1.480;2023-05-07T01:18:37;17.10;99.90
14924;DHT22;7554;43.600;1.480;2023-05-07T01:21:05;17.00;99.90
14924;DHT22;7554;43.600;1.480;2023-05-07T01:23:34;17.00;99.90
14924;DHT22;7554;43.600;1.480;2023-05-07T01:26:02;17.10;99.90
14924;DHT22;7554;43.600;1.480;2023-05-07T01:28:29;17.20;99.90
14924;DHT22;7554;43.600;1.480;2023-05-07T01:31:00;17.10;99.90
14924;DHT22;7554;43.600;1.480;2023-05-07T01:33:30;17.20;99.90
14924;DHT22;7554;43.600;1.480;2023-05-07T01:35:59;17.30;99.90
14924;DHT22;7554;43.600;1.480;2023-05-07T01:38:29;17.20;99.90
14924;DHT22;7554;43.600;1.480;2023-05-07T01:40:58;17.20;99.90
14924;DHT22;7554;43.600;1.480;2023-05-07T01:43:26;16.80;99.90
14924;DHT22;7554;43.600;1.480;2023-05-07T01:45:53;16.90;99.90
14924;DHT22;7554;43.600;1.480;2023-05-07T01:48:21;16.90;99.90
14924;DHT22;7554;43.600;1.480;2023-05-07T01:50:49;16.70;99.90
14924;DHT22;7554;43.600;1.480;2023-05-07T01:53:16;16.80;99.90
14924;DHT22;7554;43.600;1.480;2023-05-07T01:55:44;16.80;99.90
14924;DHT22;7554;43.600;1.480;2023-05-07T01:58:12;16.70;99.90
14924;DHT22;7554;43.600;1.480;2023-05-07T02:00:40;16.80;99.90
14924;DHT22;7554;43.600;1.480;2023-05-07T02:03:07;16.80;99.90
14924;DHT22;7554;43.600;1.480;2023-05-07T02:05:35;16.90;99.90
14924;DHT22;7554;43.600;1.480;2023-05-07T02:08:02;16.90;99.90
14924;DHT22;7554;43.600;1.480;2023-05-07T02:10:30;16.80;99.90
14924;DHT22;7554;43.600;1.480;2023-05-07T02:12:57;16.80;99.90
14924;DHT22;7554;43.600;1.480;2023-05-07T02:15:26;16.70;99.90
14924;DHT22;7554;43.600;1.480;2023-05-07T02:18:01;16.60;99.90
14924;DHT22;7554;43.600;1.480;2023-05-07T02:20:29;16.60;99.90
14924;DHT22;7554;43.600;1.480;2023-05-07T02:22:56;16.80;99.90
14924;DHT22;7554;43.600;1.480;2023-05-07T02:25:24;16.70;99.90
14924;DHT22;7554;43.600;1.480;2023-05-07T02:27:51;16.70;99.90
14924;DHT22;7554;43.600;1.480;2023-05-07T02:30:19;16.70;99.90
14924;DHT22;7554;43.600;1.480;2023-05-07T02:32:48;16.70;99.90
14924;DHT22;7554;43.600;1.480;2023-05-07T02:35:15;16.70;99.90
14924;DHT22;7554;43.600;1.480;2023-05-07T02:37:43;16.60;99.90
14924;DHT22;7554;43.600;1.480;2023-05-07T02:40:11;16.60;99.90
14924;DHT22;7554;43.600;1.480;2023-05-07T02:42:38;16.60;99.90
14924;DHT22;7554;43.600;1.480;2023-05-07T02:45:07;16.70;99.90
14924;DHT22;7554;43.600;1.480;2023-05-07T02:47:34;16.60;99.90
14924;DHT22;7554;43.600;1.480;2023-05-07T02:50:04;16.50;99.90
14924;DHT22;7554;43.600;1.480;2023-05-07T02:52:31;16.50;99.90
14924;DHT22;7554;43.600;1.480;2023-05-07T02:54:58;16.60;99.90
14924;DHT22;7554;43.600;1.480;2023-05-07T02:57:26;16.70;99.90
14924;DHT22;7554;43.600;1.480;2023-05-07T02:59:53;16.60;99.90
14924;DHT22;7554;43.600;1.480;2023-05-07T03:02:20;16.60;99.90
14924;DHT22;7554;43.600;1.480;2023-05-07T03:04:47;16.60;99.90
14924;DHT22;7554;43.600;1.480;2023-05-07T03:07:16;16.40;99.90
14924;DHT22;7554;43.600;1.480;2023-05-07T03:09:44;16.40;99.90
14924;DHT22;7554;43.600;1.480;2023-05-07T03:12:11;16.20;99.90
14924;DHT22;7554;43.600;1.480;2023-05-07T03:14:38;16.30;99.90
14924;DHT22;7554;43.600;1.480;2023-05-07T03:17:05;16.40;99.90
14924;DHT22;7554;43.600;1.480;2023-05-07T03:19:33;16.20;99.90
14924;DHT22;7554;43.600;1.480;2023-05-07T03:22:00;16.30;99.90
14924;DHT22;7554;43.600;1.480;2023-05-07T03:24:29;16.20;99.90
14924;DHT22;7554;43.600;1.480;2023-05-07T03:26:56;16.20;99.90
14924;DHT22;7554;43.600;1.480;2023-05-07T03:29:24;16.30;99.90
14924;DHT22;7554;43.600;1.480;2023-05-07T03:31:51;16.20;99.90
14924;DHT22;7554;43.600;1.480;2023-05-07T03:34:19;16.20;99.90
14924;DHT22;7554;43.600;1.480;2023-05-07T03:36:47;16.20;99.90
14924;DHT22;7554;43.600;1.480;2023-05-07T03:39:15;16.30;99.90
14924;DHT22;7554;43.600;1.480;2023-05-07T03:41:44;16.20;99.90
14924;DHT22;7554;43.600;1.480;2023-05-07T03:44:11;16.20;99.90
14924;DHT22;7554;43.600;1.480;2023-05-07T03:46:38;16.40;99.90
14924;DHT22;7554;43.600;1.480;2023-05-07T03:49:06;16.40;99.90
14924;DHT22;7554;43.600;1.480;2023-05-07T03:51:33;16.40;99.90
14924;DHT22;7554;43.600;1.480;2023-05-07T03:54:01;16.30;99.90
14924;DHT22;7554;43.600;1.480;2023-05-07T03:56:29;16.20;99.90
14924;DHT22;7554;43.600;1.480;2023-05-07T03:58:58;16.40;99.90
14924;DHT22;7554;43.600;1.480;2023-05-07T04:01:25;16.40;99.90
14924;DHT22;7554;43.600;1.480;2023-05-07T04:03:52;16.40;99.90
14924;DHT22;7554;43.600;1.480;2023-05-07T04:06:20;16.40;99.90
14924;DHT22;7554;43.600;1.480;2023-05-07T04:08:47;16.40;99.90
14924;DHT22;7554;43.600;1.480;2023-05-07T04:11:15;16.40;99.90
14924;DHT22;7554;43.600;1.480;2023-05-07T04:13:42;16.40;99.90
14924;DHT22;7554;43.600;1.480;2023-05-07T04:16:11;16.30;99.90
14924;DHT22;7554;43.600;1.480;2023-05-07T04:18:38;16.40;99.90
14924;DHT22;7554;43.600;1.480;2023-05-07T04:21:06;16.20;99.90
14924;DHT22;7554;43.600;1.480;2023-05-07T04:23:40;16.20;99.90
14924;DHT22;7554;43.600;1.480;2023-05-07T04:26:07;16.10;99.90
14924;DHT22;7554;43.600;1.480;2023-05-07T04:28:35;16.20;1.00
14924;DHT22;7554;43.600;1.480;2023-05-07T04:31:02;16.20;1.00
14924;DHT22;7554;43.600;1.480;2023-05-07T04:33:32;16.20;1.00
14924;DHT22;7554;43.600;1.480;2023-05-07T04:36:01;16.30;1.00
14924;DHT22;7554;43.600;1.480;2023-05-07T04:38:29;16.30;64.90
14924;DHT22;7554;43.600;1.480;2023-05-07T04:40:57;16.40;99.90
14924;DHT22;7554;43.600;1.480;2023-05-07T04:43:24;16.40;1.00
14924;DHT22;7554;43.600;1.480;2023-05-07T04:45:51;16.40;99.90
14924;DHT22;7554;43.600;1.480;2023-05-07T04:48:19;16.30;1.00
14924;DHT22;7554;43.600;1.480;2023-05-07T04:50:49;16.20;99.90
14924;DHT22;7554;43.600;1.480;2023-05-07T04:53:17;16.10;99.90
14924;DHT22;7554;43.600;1.480;2023-05-07T04:55:44;16.20;99.90
14924;DHT22;7554;43.600;1.480;2023-05-07T04:58:12;16.20;79.20
14924;DHT22;7554;43.600;1.480;2023-05-07T05:00:39;16.20;1.00
14924;DHT22;7554;43.600;1.480;2023-05-07T05:03:08;16.00;1.00
14924;DHT22;7554;43.600;1.480;2023-05-07T05:05:35;16.20;1.00
14924;DHT22;7554;43.600;1.480;2023-05-07T05:08:04;16.00;1.00
14924;DHT22;7554;43.600;1.480;2023-05-07T05:10:32;16.00;1.00
14924;DHT22;7554;43.600;1.480;2023-05-07T05:12:59;16.00;1.00
14924;DHT22;7554;43.600;1.480;2023-05-07T05:15:26;16.10;1.00
14924;DHT22;7554;43.600;1.480;2023-05-07T05:17:53;16.10;1.00
14924;DHT22;7554;43.600;1.480;2023-05-07T05:20:21;16.10;1.00
14924;DHT22;7554;43.600;1.480;2023-05-07T05:22:48;16.00;1.00
14924;DHT22;7554;43.600;1.480;2023-05-07T05:25:17;16.10;1.00
14924;DHT22;7554;43.600;1.480;2023-05-07T05:27:44;16.10;99.90
14924;DHT22;7554;43.600;1.480;2023-05-07T05:30:12;16.10;99.90
14924;DHT22;7554;43.600;1.480;2023-05-07T05:32:39;16.20;99.90
14924;DHT22;7554;43.600;1.480;2023-05-07T05:35:08;16.00;99.90
14924;DHT22;7554;43.600;1.480;2023-05-07T05:37:35;16.10;99.90
14924;DHT22;7554;43.600;1.480;2023-05-07T05:40:02;16.10;99.90
14924;DHT22;7554;43.600;1.480;2023-05-07T05:42:32;16.30;91.60
14924;DHT22;7554;43.600;1.480;2023-05-07T05:44:59;16.20;21.90
14924;DHT22;7554;43.600;1.480;2023-05-07T05:47:26;16.20;1.00
14924;DHT22;7554;43.600;1.480;2023-05-07T05:49:53;16.40;1.00
14924;DHT22;7554;43.600;1.480;2023-05-07T05:52:21;16.30;1.00
14924;DHT22;7554;43.600;1.480;2023-05-07T05:54:49;16.40;1.00
14924;DHT22;7554;43.600;1.480;2023-05-07T05:57:17;16.30;1.00
14924;DHT22;7554;43.600;1.480;2023-05-07T05:59:46;16.50;1.00
14924;DHT22;7554;43.600;1.480;2023-05-07T06:02:14;16.50;1.00
14924;DHT22;7554;43.600;1.480;2023-05-07T06:04:41;16.50;1.00
14924;DHT22;7554;43.600;1.480;2023-05-07T06:07:08;16.60;1.00
14924;DHT22;7554;43.600;1.480;2023-05-07T06:09:36;16.60;1.00
14924;DHT22;7554;43.600;1.480;2023-05-07T06:12:03;16.50;1.00
14924;DHT22;7554;43.600;1.480;2023-05-07T06:14:30;16.60;1.00
14924;DHT22;7554;43.600;1.480;2023-05-07T06:16:59;16.60;1.00
14924;DHT22;7554;43.600;1.480;2023-05-07T06:19:26;16.60;1.00
14924;DHT22;7554;43.600;1.480;2023-05-07T06:21:54;16.60;1.00
14924;DHT22;7554;43.600;1.480;2023-05-07T06:24:22;16.50;1.00
14924;DHT22;7554;43.600;1.480;2023-05-07T06:26:49;16.60;1.00
14924;DHT22;7554;43.600;1.480;2023-05-07T06:29:16;16.60;1.00
14924;DHT22;7554;43.600;1.480;2023-05-07T06:31:44;16.60;1.00
14924;DHT22;7554;43.600;1.480;2023-05-07T06:34:12;16.70;1.00
14924;DHT22;7554;43.600;1.480;2023-05-07T06:36:40;16.60;1.00
14924;DHT22;7554;43.600;1.480;2023-05-07T06:39:08;16.60;1.00
14924;DHT22;7554;43.600;1.480;2023-05-07T06:41:35;16.50;1.00
14924;DHT22;7554;43.600;1.480;2023-05-07T06:44:04;16.50;1.00
14924;DHT22;7554;43.600;1.480;2023-05-07T06:46:31;16.50;1.00
14924;DHT22;7554;43.600;1.480;2023-05-07T06:48:58;16.40;1.00
14924;DHT22;7554;43.600;1.480;2023-05-07T06:51:27;16.40;1.00
14924;DHT22;7554;43.600;1.480;2023-05-07T06:53:54;16.50;1.00
14924;DHT22;7554;43.600;1.480;2023-05-07T06:56:21;16.50;1.00
14924;DHT22;7554;43.600;1.480;2023-05-07T06:58:49;16.50;1.00
14924;DHT22;7554;43.600;1.480;2023-05-07T07:01:16;16.60;1.00
14924;DHT22;7554;43.600;1.480;2023-05-07T07:03:43;16.70;1.00
14924;DHT22;7554;43.600;1.480;2023-05-07T07:06:11;16.90;1.00
14924;DHT22;7554;43.600;1.480;2023-05-07T07:08:39;17.10;1.00
14924;DHT22;7554;43.600;1.480;2023-05-07T07:11:07;17.20;1.00
14924;DHT22;7554;43.600;1.480;2023-05-07T07:13:35;17.10;1.00
14924;DHT22;7554;43.600;1.480;2023-05-07T07:16:02;17.10;1.00
14924;DHT22;7554;43.600;1.480;2023-05-07T07:18:30;16.90;1.00
14924;DHT22;7554;43.600;1.480;2023-05-07T07:20:57;16.70;1.00
14924;DHT22;7554;43.600;1.480;2023-05-07T07:23:24;16.60;1.00
14924;DHT22;7554;43.600;1.480;2023-05-07T07:25:53;16.40;1.00
14924;DHT22;7554;43.600;1.480;2023-05-07T07:28:21;16.50;1.00
14924;DHT22;7554;43.600;1.480;2023-05-07T07:30:48;16.60;1.00
14924;DHT22;7554;43.600;1.480;2023-05-07T07:33:16;16.90;1.00
14924;DHT22;7554;43.600;1.480;2023-05-07T07:35:43;17.30;1.00
14924;DHT22;7554;43.600;1.480;2023-05-07T07:38:10;17.60;1.00
14924;DHT22;7554;43.600;1.480;2023-05-07T07:40:38;17.90;1.00
14924;DHT22;7554;43.600;1.480;2023-05-07T07:43:07;17.80;1.00
14924;DHT22;7554;43.600;1.480;2023-05-07T07:45:34;18.00;1.00
14924;DHT22;7554;43.600;1.480;2023-05-07T07:48:02;17.90;1.00
14924;DHT22;7554;43.600;1.480;2023-05-07T07:50:30;17.80;1.00
14924;DHT22;7554;43.600;1.480;2023-05-07T07:52:57;17.80;1.00
14924;DHT22;7554;43.600;1.480;2023-05-07T07:55:24;17.90;1.00
14924;DHT22;7554;43.600;1.480;2023-05-07T07:57:52;18.10;1.00
14924;DHT22;7554;43.600;1.480;2023-05-07T08:00:21;18.20;1.00
14924;DHT22;7554;43.600;1.480;2023-05-07T08:02:49;18.50;1.00
14924;DHT22;7554;43.600;1.480;2023-05-07T08:05:16;18.70;1.00
14924;DHT22;7554;43.600;1.480;2023-05-07T08:07:43;18.50;1.00
14924;DHT22;7554;43.600;1.480;2023-05-07T08:10:12;18.40;1.00
14924;DHT22;7554;43.600;1.480;2023-05-07T08:12:46;18.50;1.00
14924;DHT22;7554;43.600;1.480;2023-05-07T08:15:14;18.70;1.00
14924;DHT22;7554;43.600;1.480;2023-05-07T08:17:43;18.90;1.00
14924;DHT22;7554;43.600;1.480;2023-05-07T08:20:10;19.30;1.00
14924;DHT22;7554;43.600;1.480;2023-05-07T08:22:37;19.60;1.00
14924;DHT22;7554;43.600;1.480;2023-05-07T08:25:06;19.50;1.00
14924;DHT22;7554;43.600;1.480;2023-05-07T08:27:35;19.40;1.00
14924;DHT22;7554;43.600;1.480;2023-05-07T08:30:02;19.60;1.00
14924;DHT22;7554;43.600;1.480;2023-05-07T08:32:30;19.80;1.00
14924;DHT22;7554;43.600;1.480;2023-05-07T08:34:59;19.90;1.00
14924;DHT22;7554;43.600;1.480;2023-05-07T08:37:27;20.00;1.00
14924;DHT22;7554;43.600;1.480;2023-05-07T08:39:54;20.20;1.00
14924;DHT22;7554;43.600;1.480;2023-05-07T08:42:23;20.20;1.00
14924;DHT22;7554;43.600;1.480;2023-05-07T08:44:51;20.10;1.00
14924;DHT22;7554;43.600;1.480;2023-05-07T08:47:20;20.20;1.00
14924;DHT22;7554;43.600;1.480;2023-05-07T08:49:50;20.80;1.00
14924;DHT22;7554;43.600;1.480;2023-05-07T08:52:18;21.40;1.00
14924;DHT22;7554;43.600;1.480;2023-05-07T08:54:46;21.90;1.00
14924;DHT22;7554;43.600;1.480;2023-05-07T08:57:13;25.10;1.00
14924;DHT22;7554;43.600;1.480;2023-05-07T08:59:41;25.50;1.00
14924;DHT22;7554;43.600;1.480;2023-05-07T09:02:10;23.50;1.00
14924;DHT22;7554;43.600;1.480;2023-05-07T09:04:38;22.50;1.00
14924;DHT22;7554;43.600;1.480;2023-05-07T09:07:05;22.00;1.00
14924;DHT22;7554;43.600;1.480;2023-05-07T09:09:34;21.50;1.00
14924;DHT22;7554;43.600;1.480;2023-05-07T09:12:01;20.80;1.00
14924;DHT22;7554;43.600;1.480;2023-05-07T09:14:29;20.60;1.00
14924;DHT22;7554;43.600;1.480;2023-05-07T09:16:57;20.90;1.00
14924;DHT22;7554;43.600;1.480;2023-05-07T09:19:25;21.00;1.00
14924;DHT22;7554;43.600;1.480;2023-05-07T09:21:58;21.10;1.00
14924;DHT22;7554;43.600;1.480;2023-05-07T09:24:27;21.00;1.00
14924;DHT22;7554;43.600;1.480;2023-05-07T09:27:01;21.20;1.00
14924;DHT22;7554;43.600;1.480;2023-05-07T09:29:29;21.60;1.00
14924;DHT22;7554;43.600;1.480;2023-05-07T09:32:01;22.00;1.00
14924;DHT22;7554;43.600;1.480;2023-05-07T09:34:29;22.60;1.00
14924;DHT22;7554;43.600;1.480;2023-05-07T09:36:57;22.50;1.00
14924;DHT22;7554;43.600;1.480;2023-05-07T09:39:25;22.60;1.00
14924;DHT22;7554;43.600;1.480;2023-05-07T09:41:53;22.50;1.00
14924;DHT22;7554;43.600;1.480;2023-05-07T09:44:22;22.50;1.00
14924;DHT22;7554;43.600;1.480;2023-05-07T09:46:53;22.40;1.00
14924;DHT22;7554;43.600;1.480;2023-05-07T09:49:22;22.30;1.00
14924;DHT22;7554;43.600;1.480;2023-05-07T09:51:52;22.10;1.00
14924;DHT22;7554;43.600;1.480;2023-05-07T09:54:20;22.10;1.00
14924;DHT22;7554;43.600;1.480;2023-05-07T09:56:48;22.00;1.00
14924;DHT22;7554;43.600;1.480;2023-05-07T09:59:16;21.20;1.00
14924;DHT22;7554;43.600;1.480;2023-05-07T10:01:45;20.90;1.00
14924;DHT22;7554;43.600;1.480;2023-05-07T10:04:12;20.40;1.00
14924;DHT22;7554;43.600;1.480;2023-05-07T10:06:40;20.40;1.00
14924;DHT22;7554;43.600;1.480;2023-05-07T10:09:08;20.40;1.00
14924;DHT22;7554;43.600;1.480;2023-05-07T10:11:37;20.00;1.00
14924;DHT22;7554;43.600;1.480;2023-05-07T10:14:05;19.70;1.00
14924;DHT22;7554;43.600;1.480;2023-05-07T10:16:34;19.50;1.00
14924;DHT22;7554;43.600;1.480;2023-05-07T10:19:04;19.40;1.00
14924;DHT22;7554;43.600;1.480;2023-05-07T10:21:35;19.60;1.00
14924;DHT22;7554;43.600;1.480;2023-05-07T10:24:04;19.50;1.00
14924;DHT22;7554;43.600;1.480;2023-05-07T10:26:35;19.50;1.00
14924;DHT22;7554;43.600;1.480;2023-05-07T10:29:07;19.70;1.00
14924;DHT22;7554;43.600;1.480;2023-05-07T10:31:50;19.90;1.00
14924;DHT22;7554;43.600;1.480;2023-05-07T10:34:24;20.10;1.00
14924;DHT22;7554;43.600;1.480;2023-05-07T10:36:54;20.50;1.00
14924;DHT22;7554;43.600;1.480;2023-05-07T10:39:23;20.70;1.00
14924;DHT22;7554;43.600;1.480;2023-05-07T10:41:50;21.20;1.00
14924;DHT22;7554;43.600;1.480;2023-05-07T10:44:27;22.00;1.00
14924;DHT22;7554;43.600;1.480;2023-05-07T10:47:08;22.40;1.00
14924;DHT22;7554;43.600;1.480;2023-05-07T10:50:19;22.50;1.00
14924;DHT22;7554;43.600;1.480;2023-05-07T10:52:39;22.50;1.00
14924;DHT22;7554;43.600;1.480;2023-05-07T10:55:20;22.90;1.00
14924;DHT22;7554;43.600;1.480;2023-05-07T10:57:50;23.20;1.00
14924;DHT22;7554;43.600;1.480;2023-05-07T11:00:41;22.70;1.00
14924;DHT22;7554;43.600;1.480;2023-05-07T11:03:09;22.70;1.00
14924;DHT22;7554;43.600;1.480;2023-05-07T11:05:39;22.70;1.00
14924;DHT22;7554;43.600;1.480;2023-05-07T11:08:06;22.90;1.00
14924;DHT22;7554;43.600;1.480;2023-05-07T11:10:55;22.90;1.00
14924;DHT22;7554;43.600;1.480;2023-05-07T11:13:41;23.00;1.00
14924;DHT22;7554;43.600;1.480;2023-05-07T11:16:17;23.40;1.00
14924;DHT22;7554;43.600;1.480;2023-05-07T11:18:48;23.70;1.00
14924;DHT22;7554;43.600;1.480;2023-05-07T11:21:38;23.80;1.00
14924;DHT22;7554;43.600;1.480;2023-05-07T11:24:07;23.60;1.00
14924;DHT22;7554;43.600;1.480;2023-05-07T11:26:48;23.20;1.00
14924;DHT22;7554;43.600;1.480;2023-05-07T11:29:17;23.10;1.00
14924;DHT22;7554;43.600;1.480;2023-05-07T11:31:48;23.10;1.00
14924;DHT22;7554;43.600;1.480;2023-05-07T11:34:21;22.80;1.00
14924;DHT22;7554;43.600;1.480;2023-05-07T11:36:50;22.50;1.00
14924;DHT22;7554;43.600;1.480;2023-05-07T11:39:25;22.30;1.00
14924;DHT22;7554;43.600;1.480;2023-05-07T11:41:52;22.40;1.00
14924;DHT22;7554;43.600;1.480;2023-05-07T11:44:19;22.70;1.00
14924;DHT22;7554;43.600;1.480;2023-05-07T11:46:46;22.80;1.00
14924;DHT22;7554;43.600;1.480;2023-05-07T11:49:14;23.20;1.00
14924;DHT22;7554;43.600;1.480;2023-05-07T11:51:41;23.10;1.00
14924;DHT22;7554;43.600;1.480;2023-05-07T11:54:10;23.00;1.00
14924;DHT22;7554;43.600;1.480;2023-05-07T11:56:39;23.20;1.00
14924;DHT22;7554;43.600;1.480;2023-05-07T11:59:06;23.50;1.00
14924;DHT22;7554;43.600;1.480;2023-05-07T12:01:35;23.70;1.00
14924;DHT22;7554;43.600;1.480;2023-05-07T12:04:03;23.40;1.00
14924;DHT22;7554;43.600;1.480;2023-05-07T12:06:31;23.00;1.00
14924;DHT22;7554;43.600;1.480;2023-05-07T12:08:58;22.80;1.00
14924;DHT22;7554;43.600;1.480;2023-05-07T12:11:27;22.50;1.00
14924;DHT22;7554;43.600;1.480;2023-05-07T12:13:54;22.70;1.00
14924;DHT22;7554;43.600;1.480;2023-05-07T12:16:22;22.70;1.00
14924;DHT22;7554;43.600;1.480;2023-05-07T12:18:51;23.10;1.00
14924;DHT22;7554;43.600;1.480;2023-05-07T12:21:20;23.70;1.00
14924;DHT22;7554;43.600;1.480;2023-05-07T12:23:48;23.80;1.00
14924;DHT22;7554;43.600;1.480;2023-05-07T12:26:16;23.70;1.00
14924;DHT22;7554;43.600;1.480;2023-05-07T12:28:44;23.30;1.00
14924;DHT22;7554;43.600;1.480;2023-05-07T12:31:13;23.40;1.00
14924;DHT22;7554;43.600;1.480;2023-05-07T12:33:42;23.30;1.00
14924;DHT22;7554;43.600;1.480;2023-05-07T12:36:12;23.20;1.00
14924;DHT22;7554;43.600;1.480;2023-05-07T12:38:40;23.50;1.00
14924;DHT22;7554;43.600;1.480;2023-05-07T12:41:08;23.90;1.00
14924;DHT22;7554;43.600;1.480;2023-05-07T12:43:36;24.00;1.00
14924;DHT22;7554;43.600;1.480;2023-05-07T12:46:07;24.40;1.00
14924;DHT22;7554;43.600;1.480;2023-05-07T12:48:37;24.30;1.00
14924;DHT22;7554;43.600;1.480;2023-05-07T12:51:05;24.30;1.00
14924;DHT22;7554;43.600;1.480;2023-05-07T12:53:33;24.00;1.00
14924;DHT22;7554;43.600;1.480;2023-05-07T12:56:02;23.60;1.00
14924;DHT22;7554;43.600;1.480;2023-05-07T12:58:34;23.50;1.00
14924;DHT22;7554;43.600;1.480;2023-05-07T13:01:08;23.20;1.00
14924;DHT22;7554;43.600;1.480;2023-05-07T13:03:36;23.10;1.00
14924;DHT22;7554;43.600;1.480;2023-05-07T13:06:05;23.10;1.00
14924;DHT22;7554;43.600;1.480;2023-05-07T13:08:33;22.70;1.00
14924;DHT22;7554;43.600;1.480;2023-05-07T13:11:02;22.70;1.00
14924;DHT22;7554;43.600;1.480;2023-05-07T13:13:30;22.80;1.00
14924;DHT22;7554;43.600;1.480;2023-05-07T13:15:58;22.70;1.00
14924;DHT22;7554;43.600;1.480;2023-05-07T13:18:29;22.80;1.00
14924;DHT22;7554;43.600;1.480;2023-05-07T13:20:56;22.60;1.00
14924;DHT22;7554;43.600;1.480;2023-05-07T13:23:24;22.60;1.00
14924;DHT22;7554;43.600;1.480;2023-05-07T13:25:51;22.50;1.00
14924;DHT22;7554;43.600;1.480;2023-05-07T13:28:19;22.70;1.00
14924;DHT22;7554;43.600;1.480;2023-05-07T13:30:47;22.80;1.00
14924;DHT22;7554;43.600;1.480;2023-05-07T13:33:14;23.30;1.00
14924;DHT22;7554;43.600;1.480;2023-05-07T13:35:44;23.70;1.00
14924;DHT22;7554;43.600;1.480;2023-05-07T13:38:11;23.80;1.00
14924;DHT22;7554;43.600;1.480;2023-05-07T13:40:39;24.00;1.00
14924;DHT22;7554;43.600;1.480;2023-05-07T13:43:06;23.90;1.00
14924;DHT22;7554;43.600;1.480;2023-05-07T13:45:33;23.90;1.00
14924;DHT22;7554;43.600;1.480;2023-05-07T13:48:01;23.60;1.00
14924;DHT22;7554;43.600;1.480;2023-05-07T13:50:28;23.60;1.00
14924;DHT22;7554;43.600;1.480;2023-05-07T13:52:57;23.60;1.00
14924;DHT22;7554;43.600;1.480;2023-05-07T13:55:24;23.60;1.00
14924;DHT22;7554;43.600;1.480;2023-05-07T13:57:55;23.60;1.00
14924;DHT22;7554;43.600;1.480;2023-05-07T14:00:23;23.20;1.00
14924;DHT22;7554;43.600;1.480;2023-05-07T14:02:51;23.00;1.00
14924;DHT22;7554;43.600;1.480;2023-05-07T14:05:18;22.90;1.00
14924;DHT22;7554;43.600;1.480;2023-05-07T14:07:46;22.80;1.00
14924;DHT22;7554;43.600;1.480;2023-05-07T14:10:16;22.80;1.00
14924;DHT22;7554;43.600;1.480;2023-05-07T14:12:44;22.90;1.00
14924;DHT22;7554;43.600;1.480;2023-05-07T14:15:11;23.00;1.00
14924;DHT22;7554;43.600;1.480;2023-05-07T14:17:39;23.10;1.00
14924;DHT22;7554;43.600;1.480;2023-05-07T14:20:07;23.00;1.00
14924;DHT22;7554;43.600;1.480;2023-05-07T14:22:35;23.00;1.00
14924;DHT22;7554;43.600;1.480;2023-05-07T14:25:03;22.90;1.00
14924;DHT22;7554;43.600;1.480;2023-05-07T14:27:32;22.80;1.00
14924;DHT22;7554;43.600;1.480;2023-05-07T14:29:59;22.80;1.00
14924;DHT22;7554;43.600;1.480;2023-05-07T14:32:26;22.80;1.00
14924;DHT22;7554;43.600;1.480;2023-05-07T14:34:54;22.80;1.00
14924;DHT22;7554;43.600;1.480;2023-05-07T14:37:21;22.70;1.00
14924;DHT22;7554;43.600;1.480;2023-05-07T14:39:48;22.60;1.00
14924;DHT22;7554;43.600;1.480;2023-05-07T14:42:15;22.60;1.00
14924;DHT22;7554;43.600;1.480;2023-05-07T14:44:44;22.70;1.00
14924;DHT22;7554;43.600;1.480;2023-05-07T14:47:13;22.70;1.00
14924;DHT22;7554;43.600;1.480;2023-05-07T14:49:41;22.90;1.00
14924;DHT22;7554;43.600;1.480;2023-05-07T14:52:08;23.20;1.00
14924;DHT22;7554;43.600;1.480;2023-05-07T14:54:37;23.20;1.00
14924;DHT22;7554;43.600;1.480;2023-05-07T14:57:05;23.10;1.00
14924;DHT22;7554;43.600;1.480;2023-05-07T14:59:33;22.90;1.00
14924;DHT22;7554;43.600;1.480;2023-05-07T15:02:02;20.50;1.00
14924;DHT22;7554;43.600;1.480;2023-05-07T15:04:31;18.90;12.50
14924;DHT22;7554;43.600;1.480;2023-05-07T15:06:58;18.50;1.00
14924;DHT22;7554;43.600;1.480;2023-05-07T15:09:26;18.40;1.00
14924;DHT22;7554;43.600;1.480;2023-05-07T15:11:53;19.20;1.00
14924;DHT22;7554;43.600;1.480;2023-05-07T15:14:20;19.60;1.00
14924;DHT22;7554;43.600;1.480;2023-05-07T15:16:48;19.70;1.00
14924;DHT22;7554;43.600;1.480;2023-05-07T15:19:17;19.50;1.00
14924;DHT22;7554;43.600;1.480;2023-05-07T15:21:44;20.00;1.00
14924;DHT22;7554;43.600;1.480;2023-05-07T15:24:11;20.40;1.00
14924;DHT22;7554;43.600;1.480;2023-05-07T15:26:39;20.60;1.00
14924;DHT22;7554;43.600;1.480;2023-05-07T15:29:06;20.70;1.00
14924;DHT22;7554;43.600;1.480;2023-05-07T15:31:35;20.80;1.00
14924;DHT22;7554;43.600;1.480;2023-05-07T15:34:04;20.90;1.00
14924;DHT22;7554;43.600;1.480;2023-05-07T15:36:33;20.90;1.00
14924;DHT22;7554;43.600;1.480;2023-05-07T15:39:00;21.10;1.00
14924;DHT22;7554;43.600;1.480;2023-05-07T15:41:28;21.30;1.00
14924;DHT22;7554;43.600;1.480;2023-05-07T15:43:55;21.60;1.00
14924;DHT22;7554;43.600;1.480;2023-05-07T15:46:24;20.10;1.00
14924;DHT22;7554;43.600;1.480;2023-05-07T15:48:52;18.30;1.00
14924;DHT22;7554;43.600;1.480;2023-05-07T15:51:19;20.20;99.90
14924;DHT22;7554;43.600;1.480;2023-05-07T15:53:49;21.20;99.90
14924;DHT22;7554;43.600;1.480;2023-05-07T15:56:17;20.10;99.90
14924;DHT22;7554;43.600;1.480;2023-05-07T15:58:44;21.00;99.90
14924;DHT22;7554;43.600;1.480;2023-05-07T16:01:12;20.00;99.90
14924;DHT22;7554;43.600;1.480;2023-05-07T16:03:40;21.90;99.90
14924;DHT22;7554;43.600;1.480;2023-05-07T16:06:08;21.10;99.90